createdAt,value
2023-07-18T00:00:57.043Z,7.20
2023-07-18T00:03:24.040Z,7.68
2023-07-18T00:05:50.867Z,7.30
2023-07-18T00:08:17.515Z,7.03
2023-07-18T00:10:44.314Z,7.40
2023-07-18T00:13:11.117Z,6.95
2023-07-18T00:15:37.851Z,10.30
2023-07-18T00:18:04.874Z,6.47
2023-07-18T00:20:32.071Z,6.67
2023-07-18T00:23:00.455Z,19.02
2023-07-18T00:25:27.492Z,9.75
2023-07-18T00:27:55.384Z,7.82
2023-07-18T00:30:23.024Z,9.90
2023-07-18T00:32:49.978Z,7.67
2023-07-18T00:35:17.715Z,6.97
2023-07-18T00:37:45.840Z,8.00
2023-07-18T00:40:16.029Z,9.13
2023-07-18T00:42:46.463Z,7.22
2023-07-18T00:45:14.540Z,8.03
2023-07-18T00:47:46.693Z,9.52
2023-07-18T00:50:18.552Z,8.75
2023-07-18T00:52:53.517Z,7.95
2023-07-18T00:55:20.688Z,8.15
2023-07-18T00:57:48.605Z,7.50
2023-07-18T01:00:18.276Z,8.32
2023-07-18T01:02:46.731Z,6.95
2023-07-18T01:05:19.604Z,6.15
2023-07-18T01:07:48.126Z,6.20
2023-07-18T01:10:15.864Z,5.30
2023-07-18T01:12:43.334Z,6.93
2023-07-18T01:15:13.831Z,6.53
2023-07-18T01:17:46.312Z,9.38
2023-07-18T01:20:20.213Z,7.38
2023-07-18T01:22:49.254Z,6.70
2023-07-18T01:25:20.471Z,5.60
2023-07-18T01:27:49.151Z,7.43
2023-07-18T01:30:19.039Z,8.38
2023-07-18T01:32:49.816Z,7.07
2023-07-18T01:35:20.510Z,7.43
2023-07-18T01:37:48.588Z,8.85
2023-07-18T01:40:21.109Z,8.20
2023-07-18T01:42:52.943Z,7.55
2023-07-18T01:45:24.081Z,7.13
2023-07-18T01:47:52.379Z,7.13
2023-07-18T01:50:19.995Z,7.32
2023-07-18T01:52:49.919Z,9.75
2023-07-18T01:55:17.831Z,6.93
2023-07-18T01:57:49.794Z,6.68
2023-07-18T02:00:21.405Z,6.30
2023-07-18T02:02:50.947Z,6.53
2023-07-18T02:05:20.556Z,9.07
2023-07-18T02:07:48.775Z,7.88
2023-07-18T02:10:17.951Z,6.95
2023-07-18T02:12:44.855Z,5.83
2023-07-18T02:15:14.288Z,7.40
2023-07-18T02:17:41.969Z,7.30
2023-07-18T02:20:12.857Z,6.97
2023-07-18T02:22:42.166Z,7.60
2023-07-18T02:25:10.268Z,6.70
2023-07-18T02:27:40.434Z,5.93
2023-07-18T02:30:12.827Z,6.25
2023-07-18T02:32:40.664Z,6.38
2023-07-18T02:35:09.049Z,7.70
2023-07-18T02:37:35.782Z,8.30
2023-07-18T02:40:11.028Z,6.53
2023-07-18T02:42:39.277Z,6.82
2023-07-18T02:45:07.923Z,6.13
2023-07-18T02:47:34.824Z,7.53
2023-07-18T02:50:01.871Z,7.00
2023-07-18T02:52:28.622Z,5.72
2023-07-18T02:54:55.262Z,7.25
2023-07-18T02:57:21.976Z,6.03
2023-07-18T02:59:48.653Z,8.13
2023-07-18T03:02:15.555Z,6.73
2023-07-18T03:04:42.819Z,11.27
2023-07-18T03:07:09.586Z,9.45
2023-07-18T03:09:36.331Z,7.65
2023-07-18T03:12:03.161Z,7.68
2023-07-18T03:14:30.511Z,7.37
2023-07-18T03:16:57.309Z,5.57
2023-07-18T03:19:24.489Z,6.75
2023-07-18T03:21:51.354Z,5.85
2023-07-18T03:24:18.933Z,9.50
2023-07-18T03:26:46.350Z,6.50
2023-07-18T03:29:13.068Z,7.07
2023-07-18T03:31:40.947Z,7.13
2023-07-18T03:34:08.016Z,5.20
2023-07-18T03:36:38.404Z,6.40
2023-07-18T03:39:05.358Z,6.20
2023-07-18T03:41:32.078Z,7.00
2023-07-18T03:43:58.886Z,6.72
2023-07-18T03:46:25.674Z,8.38
2023-07-18T03:48:53.033Z,5.88
2023-07-18T03:51:21.572Z,6.77
2023-07-18T03:53:51.970Z,6.43
2023-07-18T03:56:19.019Z,8.50
2023-07-18T03:58:45.645Z,7.75
2023-07-18T04:01:12.849Z,6.53
2023-07-18T04:03:39.874Z,10.90
2023-07-18T04:06:07.690Z,6.75
2023-07-18T04:08:34.645Z,8.18
2023-07-18T04:11:01.467Z,8.25
2023-07-18T04:13:28.583Z,6.18
2023-07-18T04:15:55.977Z,6.13
2023-07-18T04:18:23.679Z,7.13
2023-07-18T04:20:50.702Z,7.90
2023-07-18T04:23:18.509Z,8.25
2023-07-18T04:25:57.296Z,7.38
2023-07-18T04:28:24.640Z,7.13
2023-07-18T04:30:51.450Z,6.55
2023-07-18T04:33:18.188Z,9.30
2023-07-18T04:35:46.221Z,7.88
2023-07-18T04:38:14.905Z,7.97
2023-07-18T04:40:42.977Z,8.90
2023-07-18T04:43:10.292Z,9.80
2023-07-18T04:45:45.522Z,7.60
2023-07-18T04:48:14.636Z,6.88
2023-07-18T04:50:47.626Z,6.57
2023-07-18T04:53:14.496Z,7.13
2023-07-18T04:55:41.321Z,8.15
2023-07-18T04:58:09.116Z,8.95
2023-07-18T05:00:36.586Z,7.22
2023-07-18T05:03:03.743Z,6.90
2023-07-18T05:05:31.021Z,9.07
2023-07-18T05:08:03.120Z,7.45
2023-07-18T05:10:30.131Z,9.90
2023-07-18T05:12:58.106Z,9.02
2023-07-18T05:15:25.386Z,8.27
2023-07-18T05:17:52.227Z,9.60
2023-07-18T05:20:20.368Z,9.93
2023-07-18T05:22:47.475Z,7.47
2023-07-18T05:25:16.352Z,10.50
2023-07-18T05:27:43.296Z,6.97
2023-07-18T05:30:18.296Z,8.43
2023-07-18T05:32:46.908Z,7.07
2023-07-18T05:35:16.783Z,7.80
2023-07-18T05:37:44.653Z,10.02
2023-07-18T05:40:12.728Z,6.70
2023-07-18T05:42:40.617Z,8.40
2023-07-18T05:45:09.275Z,8.70
2023-07-18T05:47:36.773Z,8.15
2023-07-18T05:50:06.167Z,6.88
2023-07-18T05:52:33.006Z,6.53
2023-07-18T05:54:59.979Z,7.17
2023-07-18T05:57:26.764Z,7.05
2023-07-18T05:59:53.550Z,7.35
2023-07-18T06:02:21.405Z,7.45
2023-07-18T06:04:48.530Z,5.20
2023-07-18T06:07:16.368Z,6.93
2023-07-18T06:09:43.531Z,8.50
2023-07-18T06:12:10.829Z,8.23
2023-07-18T06:14:37.522Z,7.72
2023-07-18T06:17:04.638Z,7.40
2023-07-18T06:19:31.498Z,5.40
2023-07-18T06:21:58.440Z,6.05
2023-07-18T06:24:25.725Z,5.88
2023-07-18T06:26:52.870Z,7.43
2023-07-18T06:29:20.922Z,6.82
2023-07-18T06:31:48.922Z,7.13
2023-07-18T06:34:18.589Z,5.57
2023-07-18T06:36:47.050Z,6.95
2023-07-18T06:39:15.346Z,7.07
2023-07-18T06:41:42.547Z,5.75
2023-07-18T06:44:10.379Z,5.40
2023-07-18T06:46:37.461Z,4.80
2023-07-18T06:49:04.796Z,7.65
2023-07-18T06:51:31.535Z,5.43
2023-07-18T06:53:58.272Z,4.25
2023-07-18T06:56:25.046Z,3.93
2023-07-18T06:58:51.860Z,3.50
2023-07-18T07:01:18.852Z,3.63
2023-07-18T07:03:46.010Z,7.22
2023-07-18T07:06:14.179Z,4.25
2023-07-18T07:08:41.015Z,3.90
2023-07-18T07:11:09.539Z,4.20
2023-07-18T07:13:37.118Z,3.88
2023-07-18T07:16:04.893Z,5.97
2023-07-18T07:18:31.843Z,4.03
2023-07-18T07:20:58.832Z,4.97
2023-07-18T07:23:25.675Z,5.40
2023-07-18T07:25:52.525Z,3.75
2023-07-18T07:28:20.495Z,5.82
2023-07-18T07:30:47.421Z,4.32
2023-07-18T07:33:14.309Z,5.13
2023-07-18T07:35:41.097Z,4.35
2023-07-18T07:38:08.095Z,4.10
2023-07-18T07:40:34.956Z,5.03
2023-07-18T07:43:01.889Z,4.05
2023-07-18T07:45:28.700Z,4.70
2023-07-18T07:47:55.486Z,4.90
2023-07-18T07:50:22.301Z,6.13
2023-07-18T07:52:49.054Z,4.05
2023-07-18T07:55:16.625Z,3.70
2023-07-18T07:57:43.426Z,5.40
2023-07-18T08:00:10.825Z,5.72
2023-07-18T08:02:37.592Z,5.00
2023-07-18T08:05:04.814Z,5.40
2023-07-18T08:07:31.550Z,6.95
2023-07-18T08:09:58.766Z,7.27
2023-07-18T08:12:25.953Z,5.82
2023-07-18T08:14:52.709Z,5.78
2023-07-18T08:17:19.523Z,5.70
2023-07-18T08:19:46.331Z,5.43
2023-07-18T08:22:13.054Z,5.40
2023-07-18T08:24:40.649Z,4.95
2023-07-18T08:27:07.909Z,5.53
2023-07-18T08:29:36.266Z,5.70
2023-07-18T08:32:03.313Z,6.95
2023-07-18T08:34:30.066Z,5.53
2023-07-18T08:36:56.881Z,7.07
2023-07-18T08:39:23.593Z,5.95
2023-07-18T08:41:50.465Z,5.78
2023-07-18T08:44:18.070Z,5.35
2023-07-18T08:46:49.155Z,6.97
2023-07-18T08:49:18.776Z,5.70
2023-07-18T08:51:46.422Z,5.95
2023-07-18T08:54:16.420Z,5.63
2023-07-18T08:56:45.232Z,4.82
2023-07-18T08:59:12.379Z,5.00
2023-07-18T09:01:52.443Z,5.60
2023-07-18T09:04:22.037Z,5.22
2023-07-18T09:06:50.962Z,4.78
2023-07-18T09:09:22.189Z,9.48
2023-07-18T09:12:02.591Z,6.60
2023-07-18T09:14:33.949Z,6.03
2023-07-18T09:17:05.086Z,4.53
2023-07-18T09:19:49.990Z,5.60
2023-07-18T09:22:20.868Z,5.40
2023-07-18T09:24:49.372Z,4.67
2023-07-18T09:27:16.619Z,4.80
2023-07-18T09:29:48.025Z,5.47
2023-07-18T09:32:18.780Z,4.97
2023-07-18T09:34:55.930Z,4.15
2023-07-18T09:37:23.058Z,6.13
2023-07-18T09:39:50.771Z,5.75
2023-07-18T09:42:20.346Z,6.70
2023-07-18T09:44:51.396Z,5.78
2023-07-18T09:47:19.465Z,5.18
2023-07-18T09:49:47.206Z,7.53
2023-07-18T09:52:15.833Z,6.25
2023-07-18T09:54:44.536Z,7.10
2023-07-18T09:57:13.055Z,8.38
2023-07-18T09:59:40.600Z,6.40
2023-07-18T10:02:10.476Z,6.30
2023-07-18T10:04:38.141Z,5.15
2023-07-18T10:07:05.384Z,5.75
2023-07-18T10:09:33.840Z,7.43
2023-07-18T10:12:00.608Z,6.72
2023-07-18T10:14:31.632Z,7.27
2023-07-18T10:17:06.123Z,6.95
2023-07-18T10:19:49.216Z,7.22
2023-07-18T10:22:27.064Z,8.10
2023-07-18T10:24:53.766Z,6.90
2023-07-18T10:27:25.669Z,8.63
2023-07-18T10:30:09.712Z,6.63
2023-07-18T10:32:39.367Z,6.50
2023-07-18T10:35:14.139Z,6.13
2023-07-18T10:37:45.172Z,6.95
2023-07-18T10:40:31.845Z,6.77
2023-07-18T10:42:58.623Z,7.50
2023-07-18T10:45:25.814Z,7.15
2023-07-18T10:47:52.694Z,7.70
2023-07-18T10:50:20.582Z,8.35
2023-07-18T10:52:48.136Z,6.67
2023-07-18T10:55:16.637Z,8.50
2023-07-18T10:57:43.415Z,10.90
2023-07-18T11:00:10.631Z,9.68
2023-07-18T11:02:40.099Z,11.48
2023-07-18T11:05:12.550Z,9.37
2023-07-18T11:07:41.954Z,8.15
2023-07-18T11:10:14.015Z,6.75
2023-07-18T11:12:44.410Z,7.18
2023-07-18T11:15:13.200Z,9.02
2023-07-18T11:17:40.148Z,9.80
2023-07-18T11:20:08.031Z,7.18
2023-07-18T11:22:35.217Z,9.68
2023-07-18T11:25:02.338Z,11.68
2023-07-18T11:27:31.034Z,7.60
2023-07-18T11:30:05.802Z,9.13
2023-07-18T11:32:39.131Z,8.93
2023-07-18T11:35:08.517Z,9.13
2023-07-18T11:37:42.219Z,8.98
2023-07-18T11:40:11.305Z,9.43
2023-07-18T11:43:19.599Z,8.60
2023-07-18T11:45:47.807Z,9.20
2023-07-18T11:48:15.053Z,10.45
2023-07-18T11:50:46.912Z,7.68
2023-07-18T11:53:14.097Z,8.90
2023-07-18T11:55:40.806Z,7.73
2023-07-18T11:58:09.274Z,8.95
2023-07-18T12:00:37.028Z,9.32
2023-07-18T12:03:04.027Z,10.13
2023-07-18T12:05:30.740Z,9.50
2023-07-18T12:07:57.418Z,10.23
2023-07-18T12:10:26.164Z,7.72
2023-07-18T12:12:53.252Z,12.88
2023-07-18T12:15:20.049Z,9.60
2023-07-18T12:17:48.167Z,8.73
2023-07-18T12:20:15.443Z,10.27
2023-07-18T12:22:42.239Z,7.40
2023-07-18T12:25:09.373Z,8.80
2023-07-18T12:27:36.519Z,7.32
2023-07-18T12:30:04.131Z,8.18
2023-07-18T12:32:32.517Z,8.60
2023-07-18T12:34:59.411Z,8.30
2023-07-18T12:37:26.179Z,7.18
2023-07-18T12:39:53.085Z,7.57
2023-07-18T12:42:19.896Z,9.43
2023-07-18T12:44:47.412Z,10.43
2023-07-18T12:47:14.608Z,9.60
2023-07-18T12:52:13.985Z,8.95
2023-07-18T12:54:41.621Z,10.50
2023-07-18T12:57:08.914Z,11.13
2023-07-18T12:59:35.784Z,7.97
2023-07-18T13:02:02.807Z,10.27
2023-07-18T13:04:30.106Z,12.25
2023-07-18T13:06:57.147Z,9.85
2023-07-18T13:09:23.877Z,11.17
2023-07-18T13:11:51.006Z,9.13
2023-07-18T13:14:20.999Z,8.18
2023-07-18T13:16:48.307Z,8.32
2023-07-18T13:19:15.078Z,7.93
2023-07-18T13:21:41.828Z,8.80
2023-07-18T13:24:09.026Z,8.77
2023-07-18T13:26:37.240Z,9.18
2023-07-18T13:29:04.868Z,10.52
2023-07-18T13:31:31.589Z,7.53
2023-07-18T13:33:58.311Z,9.87
2023-07-18T13:36:25.031Z,8.75
2023-07-18T13:38:51.744Z,8.20
2023-07-18T13:41:18.422Z,9.52
2023-07-18T13:43:45.127Z,9.20
2023-07-18T13:46:13.513Z,11.50
2023-07-18T13:48:40.632Z,10.32
2023-07-18T13:51:07.686Z,9.13
2023-07-18T13:53:34.470Z,8.85
2023-07-18T13:56:02.002Z,7.75
2023-07-18T13:58:28.890Z,8.80
2023-07-18T14:00:55.844Z,9.77
2023-07-18T14:03:34.120Z,11.10
2023-07-18T14:06:02.451Z,12.20
2023-07-18T14:08:30.891Z,9.13
2023-07-18T14:10:57.845Z,9.57
2023-07-18T14:13:24.676Z,9.10
2023-07-18T14:15:51.784Z,10.80
2023-07-18T14:18:18.963Z,9.23
2023-07-18T14:20:46.136Z,10.77
2023-07-18T14:23:13.341Z,12.27
2023-07-18T14:25:40.180Z,12.30
2023-07-18T14:28:07.077Z,12.95
2023-07-18T14:30:41.818Z,9.77
2023-07-18T14:33:08.572Z,11.80
2023-07-18T14:35:35.361Z,8.80
2023-07-18T14:38:02.302Z,9.77
2023-07-18T14:40:29.143Z,9.93
2023-07-18T14:42:55.803Z,10.10
2023-07-18T14:45:22.510Z,9.25
2023-07-18T14:47:49.289Z,10.63
2023-07-18T14:50:16.632Z,7.72
2023-07-18T14:52:43.790Z,9.07
2023-07-18T14:55:10.656Z,7.65
2023-07-18T14:57:37.358Z,7.78
2023-07-18T15:00:06.239Z,7.27
2023-07-18T15:02:32.992Z,8.10
2023-07-18T15:04:59.666Z,8.77
2023-07-18T15:07:27.743Z,9.25
2023-07-18T15:09:54.531Z,9.32
2023-07-18T15:12:21.563Z,7.33
2023-07-18T15:14:48.288Z,10.90
2023-07-18T15:17:14.968Z,8.40
2023-07-18T15:19:41.681Z,8.93
2023-07-18T15:22:08.405Z,8.50
2023-07-18T15:24:36.387Z,6.67
2023-07-18T15:27:03.515Z,7.72
2023-07-18T15:29:30.252Z,9.43
2023-07-18T15:31:56.937Z,7.32
2023-07-18T15:34:23.641Z,7.80
2023-07-18T15:36:50.802Z,10.47
2023-07-18T15:39:17.508Z,7.47
2023-07-18T15:41:44.238Z,7.40
2023-07-18T15:44:10.908Z,7.95
2023-07-18T15:46:38.634Z,7.32
2023-07-18T15:49:06.014Z,6.07
2023-07-18T15:51:32.872Z,8.27
2023-07-18T15:53:59.642Z,7.93
2023-07-18T15:56:26.581Z,8.23
2023-07-18T15:58:53.679Z,7.13
2023-07-18T16:01:20.585Z,8.93
2023-07-18T16:03:47.798Z,7.82
2023-07-18T16:06:14.868Z,7.72
2023-07-18T16:08:41.825Z,9.63
2023-07-18T16:11:08.494Z,6.97
2023-07-18T16:13:36.317Z,6.97
2023-07-18T16:16:05.407Z,7.60
2023-07-18T16:18:32.237Z,6.97
2023-07-18T16:20:59.009Z,7.82
2023-07-18T16:23:25.848Z,7.25
2023-07-18T16:25:52.619Z,7.87
2023-07-18T16:28:19.447Z,8.23
2023-07-18T16:30:46.271Z,8.02
2023-07-18T16:33:13.442Z,7.82
2023-07-18T16:35:40.399Z,6.03
2023-07-18T16:38:07.472Z,6.53
2023-07-18T16:40:34.243Z,8.55
2023-07-18T16:43:00.948Z,8.93
2023-07-18T16:45:27.639Z,7.35
2023-07-18T16:47:54.381Z,8.95
2023-07-18T16:50:21.121Z,6.87
2023-07-18T16:52:47.882Z,7.65
2023-07-18T16:55:14.691Z,7.68
2023-07-18T16:57:41.550Z,8.30
2023-07-18T17:00:09.669Z,8.40
2023-07-18T17:02:37.000Z,8.23
2023-07-18T17:05:04.374Z,7.93
2023-07-18T17:07:31.215Z,7.75
2023-07-18T17:09:59.459Z,7.40
2023-07-18T17:12:26.215Z,7.72
2023-07-18T17:14:52.977Z,8.13
2023-07-18T17:17:19.755Z,6.68
2023-07-18T17:20:03.100Z,7.45
2023-07-18T17:22:34.159Z,7.10
2023-07-18T17:25:01.124Z,7.35
2023-07-18T17:27:28.784Z,7.40
2023-07-18T17:29:55.799Z,7.57
2023-07-18T17:32:22.629Z,9.38
2023-07-18T17:34:49.417Z,8.20
2023-07-18T17:37:16.818Z,9.77
2023-07-18T17:39:45.523Z,7.83
2023-07-18T17:42:12.308Z,7.60
2023-07-18T17:44:41.182Z,8.02
2023-07-18T17:47:08.072Z,8.00
2023-07-18T17:49:36.001Z,10.55
2023-07-18T17:52:02.824Z,7.93
2023-07-18T17:54:29.822Z,7.82
2023-07-18T17:56:56.634Z,10.15
2023-07-18T17:59:23.344Z,8.45
2023-07-18T18:01:50.542Z,8.07
2023-07-18T18:04:18.345Z,9.10
2023-07-18T18:06:45.463Z,8.20
2023-07-18T18:09:12.202Z,8.40
2023-07-18T18:11:38.875Z,7.18
2023-07-18T18:14:06.138Z,7.47
2023-07-18T18:16:33.151Z,7.33
2023-07-18T18:18:59.841Z,8.82
2023-07-18T18:21:26.914Z,7.93
2023-07-18T18:23:53.679Z,7.07
2023-07-18T18:26:21.275Z,7.78
2023-07-18T18:28:48.259Z,8.60
2023-07-18T18:31:15.200Z,7.88
2023-07-18T18:33:42.142Z,8.68
2023-07-18T18:36:08.894Z,7.70
2023-07-18T18:38:35.653Z,8.32
2023-07-18T18:41:04.515Z,7.67
2023-07-18T18:43:31.847Z,8.80
2023-07-18T18:45:58.643Z,8.07
2023-07-18T18:48:26.729Z,7.85
2023-07-18T18:50:53.434Z,9.93
2023-07-18T18:53:22.221Z,8.13
2023-07-18T18:55:49.041Z,8.57
2023-07-18T18:58:15.755Z,11.27
2023-07-18T19:00:42.472Z,10.60
2023-07-18T19:03:09.247Z,10.30
2023-07-18T19:05:36.146Z,10.30
2023-07-18T19:08:02.997Z,9.02
2023-07-18T19:10:31.185Z,9.43
2023-07-18T19:12:57.907Z,9.05
2023-07-18T19:15:24.831Z,9.43
2023-07-18T19:17:53.701Z,10.63
2023-07-18T19:20:21.486Z,7.40
2023-07-18T19:22:48.825Z,7.75
2023-07-18T19:25:16.172Z,8.77
2023-07-18T19:27:42.892Z,10.45
2023-07-18T19:30:11.982Z,8.77
2023-07-18T19:32:41.215Z,10.57
2023-07-18T19:35:08.174Z,10.48
2023-07-18T19:37:34.975Z,9.40
2023-07-18T19:40:01.697Z,9.52
2023-07-18T19:42:28.413Z,10.40
2023-07-18T19:44:55.287Z,10.52
2023-07-18T19:47:22.271Z,11.80
2023-07-18T19:49:50.145Z,9.55
2023-07-18T19:52:16.836Z,10.40
2023-07-18T19:54:43.614Z,11.80
2023-07-18T19:57:10.362Z,8.57
2023-07-18T19:59:37.091Z,10.52
2023-07-18T20:02:04.047Z,8.30
2023-07-18T20:04:31.003Z,9.10
2023-07-18T20:06:57.909Z,9.63
2023-07-18T20:09:25.007Z,8.93
2023-07-18T20:11:51.795Z,8.68
2023-07-18T20:14:18.515Z,9.35
2023-07-18T20:16:45.535Z,9.07
2023-07-18T20:19:12.619Z,10.73
2023-07-18T20:21:39.810Z,9.35
2023-07-18T20:24:06.640Z,8.25
2023-07-18T20:26:35.432Z,8.60
2023-07-18T20:29:02.551Z,9.88
2023-07-18T20:31:29.340Z,8.97
2023-07-18T20:33:56.068Z,7.95
2023-07-18T20:36:22.834Z,8.68
2023-07-18T20:38:49.562Z,7.63
2023-07-18T20:41:16.277Z,12.30
2023-07-18T20:43:43.098Z,10.63
2023-07-18T20:46:12.406Z,10.15
2023-07-18T20:48:39.308Z,9.10
2023-07-18T20:51:07.235Z,11.13
2023-07-18T20:53:34.087Z,7.68
2023-07-18T20:56:00.888Z,7.47
2023-07-18T20:58:27.694Z,8.13
2023-07-18T21:00:54.499Z,8.45
2023-07-18T21:03:21.427Z,9.88
2023-07-18T21:05:51.406Z,9.60
2023-07-18T21:08:19.163Z,7.43
2023-07-18T21:10:46.100Z,9.63
2023-07-18T21:13:13.441Z,8.25
2023-07-18T21:15:40.320Z,10.00
2023-07-18T21:18:07.128Z,7.53
2023-07-18T21:20:34.161Z,8.97
2023-07-18T21:23:01.572Z,9.82
2023-07-18T21:25:28.725Z,8.55
2023-07-18T21:27:55.770Z,7.97
2023-07-18T21:30:22.526Z,9.20
2023-07-18T21:32:49.302Z,8.60
2023-07-18T21:35:16.186Z,7.95
2023-07-18T21:37:43.086Z,8.30
2023-07-18T21:40:10.324Z,9.18
2023-07-18T21:42:37.168Z,8.98
2023-07-18T21:45:04.244Z,7.73
2023-07-18T21:47:31.118Z,8.35
2023-07-18T21:49:57.961Z,9.77
2023-07-18T21:52:24.891Z,7.85
2023-07-18T21:54:52.050Z,7.85
2023-07-18T21:57:18.816Z,7.07
2023-07-18T21:59:45.602Z,10.85
2023-07-18T22:02:15.486Z,7.82
2023-07-18T22:04:42.327Z,10.18
2023-07-18T22:07:09.203Z,11.45
2023-07-18T22:09:36.563Z,9.17
2023-07-18T22:12:05.020Z,8.77
2023-07-18T22:14:32.482Z,9.93
2023-07-18T22:16:59.428Z,8.95
2023-07-18T22:19:26.346Z,11.23
2023-07-18T22:21:53.064Z,9.47
2023-07-18T22:24:19.932Z,8.32
2023-07-18T22:26:46.671Z,8.90
2023-07-18T22:29:13.402Z,10.80
2023-07-18T22:31:40.930Z,8.63
2023-07-18T22:34:07.830Z,8.87
2023-07-18T22:36:34.802Z,9.75
2023-07-18T22:39:01.701Z,8.77
2023-07-18T22:41:28.437Z,9.48
2023-07-18T22:43:57.481Z,8.57
2023-07-18T22:46:24.543Z,9.37
2023-07-18T22:48:51.363Z,10.80
2023-07-18T22:51:18.434Z,10.50
2023-07-18T22:53:45.420Z,9.65
2023-07-18T22:56:12.882Z,10.52
2023-07-18T22:58:39.654Z,10.53
2023-07-18T23:01:06.679Z,8.98
2023-07-18T23:03:34.417Z,8.68
2023-07-18T23:06:01.820Z,8.95
2023-07-18T23:08:28.582Z,9.93
2023-07-18T23:10:55.335Z,8.70
2023-07-18T23:13:22.568Z,10.63
2023-07-18T23:15:49.381Z,10.40
2023-07-18T23:18:16.097Z,10.43
2023-07-18T23:20:43.221Z,9.75
2023-07-18T23:23:10.083Z,8.67
2023-07-18T23:25:37.106Z,9.23
2023-07-18T23:28:05.773Z,8.98
2023-07-18T23:30:32.979Z,9.38
2023-07-18T23:32:59.814Z,10.55
2023-07-18T23:35:26.999Z,10.03
2023-07-18T23:37:55.560Z,9.35
2023-07-18T23:40:22.356Z,8.57
2023-07-18T23:42:49.070Z,10.02
2023-07-18T23:45:15.859Z,10.73
2023-07-18T23:47:42.647Z,8.23
2023-07-18T23:50:10.100Z,8.45
2023-07-18T23:52:37.191Z,8.07
2023-07-18T23:55:04.088Z,9.00
2023-07-18T23:57:30.982Z,10.43
2023-07-18T23:59:57.770Z,9.17
